Portada
METAR-TAF:

METAR-TAF

Aeroports :

Jacksonville, Carolina del Nord, Estats Units d'Amèrica

latitud: 34-42-21N, longitud: 077-26-27W, altitud: 7 m

Observació

L'informe es va fer fa 1 hora i 10 minuts, a les 21:56 UTC
Vent 8 kt del Nord/Nord-Est
Temperatura 5°C
Humitat 45%
Pressió 1028 hPa
Visibilitat: 16.1 km
Cel clar

METAR: KNCA 132156Z 02008KT 10SM CLR 05/M06 A3036 RMK AO2 SLP283 T00501061 $

Hora: 18:06 (23:06 UTC)

Pronòstic

Pronòstic vàlid del 13 a les 21 UTC al 14 a les 21 UTC
Vent 10 kt del Nord
Visibilitat 10 km o més
Cel clar
Temporalment
l' 13 a les 21 UTC al 14 a les 00 UTC
Vent 15 kt del Nord amb ràfegues de 20 kt
Evolucionant progressivament
l' 14 a les 03 UTC al 14 a les 05 UTC
Vent 6 kt amb direcció variable
Visibilitat 10 km o més
Escasses núvols a una alçada de 3000 ft
Núvols disperses a una alçada de 25000 ft

TAF: KNCA 1321/1421 36010KT 9999 SKC QNH3035INS TEMPO 1321/1400 01015G20KT BECMG 1403/1405 VRB06KT 9999 FEW030 SCT250 QNH3025INS T00/1406Z T13/1421Z

Observacions i pronòstics meteorològics de més de 4000 aeroports (METAR i TAF).

Les estacions disponibles són els punts grocs i vermells al mapa.

Posi el ratolí al punt desitjat per veure el nom de l'estació.

Feu clic per veure les observacions i els pronòstics meteorològics.

Per canviar el mapa: feu clic els botons verds amb una creu de color negre per apropar; al botó verd amb un guió per allunyar la imatge; o en les fletxes verdes per a mapes adjacents.


METAR-TAF: